createdAt,value
2019-03-10T00:00:37.567Z,1.53
2019-03-10T00:03:10.275Z,1.87
2019-03-10T00:05:43.615Z,2.20
2019-03-10T00:08:15.342Z,2.23
2019-03-10T00:10:46.660Z,2.30
2019-03-10T00:13:18.678Z,1.50
2019-03-10T00:15:50.648Z,1.93
2019-03-10T00:18:22.401Z,1.60
2019-03-10T00:20:54.158Z,1.83
2019-03-10T00:23:25.606Z,1.27
2019-03-10T00:25:57.169Z,1.40
2019-03-10T00:28:30.901Z,1.23
2019-03-10T00:31:02.489Z,1.50
2019-03-10T00:33:34.397Z,1.50
2019-03-10T00:36:06.182Z,1.63
2019-03-10T00:39:34.575Z,1.30
2019-03-10T00:42:50.475Z,1.40
2019-03-10T00:46:02.525Z,2.00
2019-03-10T00:49:14.052Z,1.60
2019-03-10T00:52:05.633Z,2.53
2019-03-10T00:54:38.667Z,1.90
2019-03-10T00:57:10.456Z,2.13
2019-03-10T00:59:41.824Z,2.30
2019-03-10T01:02:13.122Z,2.00
2019-03-10T01:04:44.852Z,1.87
2019-03-10T01:07:16.256Z,2.13
2019-03-10T01:09:49.265Z,2.13
2019-03-10T01:12:20.720Z,2.60
2019-03-10T01:14:52.171Z,2.43
2019-03-10T01:17:26.557Z,2.17
2019-03-10T01:19:58.974Z,2.20
2019-03-10T01:22:32.469Z,2.60
2019-03-10T01:25:04.333Z,2.77
2019-03-10T01:27:36.591Z,2.20
2019-03-10T01:30:12.635Z,3.43
2019-03-10T01:33:36.021Z,3.27
2019-03-10T01:36:16.913Z,2.13
2019-03-10T01:38:48.963Z,2.63
2019-03-10T01:41:21.964Z,3.23
2019-03-10T01:43:54.134Z,4.00
2019-03-10T01:46:26.489Z,2.37
2019-03-10T01:48:59.216Z,2.97
2019-03-10T01:51:31.868Z,3.17
2019-03-10T01:54:03.390Z,2.83
2019-03-10T01:56:36.393Z,2.57
2019-03-10T01:59:07.685Z,2.00
2019-03-10T02:01:40.713Z,2.70
2019-03-10T02:04:13.519Z,2.53
2019-03-10T02:06:46.545Z,2.07
2019-03-10T02:09:19.585Z,2.63
2019-03-10T02:11:50.986Z,2.40
2019-03-10T02:14:22.411Z,2.30
2019-03-10T02:16:53.860Z,2.40
2019-03-10T02:19:25.850Z,2.57
2019-03-10T02:21:57.653Z,2.63
2019-03-10T02:24:30.006Z,2.40
2019-03-10T02:27:01.952Z,2.67
2019-03-10T02:29:33.694Z,2.03
2019-03-10T02:32:07.171Z,2.30
2019-03-10T02:34:38.755Z,2.30
2019-03-10T02:37:10.873Z,2.57
2019-03-10T02:39:43.413Z,2.63
2019-03-10T02:42:15.606Z,2.13
2019-03-10T02:44:47.341Z,3.33
2019-03-10T02:47:18.946Z,2.77
2019-03-10T02:49:50.528Z,2.40
2019-03-10T02:52:23.075Z,2.67
2019-03-10T02:54:54.609Z,2.70
2019-03-10T02:57:27.092Z,2.57
2019-03-10T02:59:59.250Z,3.37
2019-03-10T03:02:32.355Z,2.50
2019-03-10T03:05:04.537Z,2.30
2019-03-10T03:07:36.443Z,2.40
2019-03-10T03:10:10.747Z,1.83
2019-03-10T03:12:43.518Z,2.13
2019-03-10T03:15:15.811Z,1.57
2019-03-10T03:17:47.577Z,1.70
2019-03-10T03:20:20.511Z,1.63
2019-03-10T03:22:52.340Z,1.67
2019-03-10T03:25:26.096Z,1.82
2019-03-10T03:27:58.690Z,1.77
2019-03-10T03:30:30.220Z,1.70
2019-03-10T03:33:02.713Z,1.70
2019-03-10T03:35:59.883Z,2.03
2019-03-10T03:38:56.086Z,1.67
2019-03-10T03:41:29.021Z,1.40
2019-03-10T03:44:00.361Z,1.43
2019-03-10T03:46:31.656Z,2.63
2019-03-10T03:49:03.114Z,1.70
2019-03-10T03:51:34.619Z,2.30
2019-03-10T03:54:07.154Z,1.90
2019-03-10T03:56:38.516Z,2.10
2019-03-10T03:59:09.839Z,2.30
2019-03-10T04:01:53.575Z,2.17
2019-03-10T04:04:25.630Z,2.50
2019-03-10T04:06:57.974Z,2.10
2019-03-10T04:09:29.770Z,1.87
2019-03-10T04:12:01.150Z,2.40
2019-03-10T04:14:32.684Z,1.97
2019-03-10T04:17:03.979Z,2.70
2019-03-10T04:19:35.278Z,2.37
2019-03-10T04:22:06.676Z,2.53
2019-03-10T04:24:40.047Z,3.20
2019-03-10T04:27:12.542Z,2.87
2019-03-10T04:29:44.044Z,2.30
2019-03-10T04:32:15.367Z,2.40
2019-03-10T04:34:47.734Z,2.33
2019-03-10T04:37:19.595Z,2.97
2019-03-10T04:39:50.933Z,2.40
2019-03-10T04:42:22.397Z,2.57
2019-03-10T04:44:54.209Z,2.73
2019-03-10T04:47:26.099Z,2.90
2019-03-10T04:49:58.297Z,2.63
2019-03-10T04:52:29.683Z,2.20
2019-03-10T04:55:19.921Z,2.27
2019-03-10T04:58:16.682Z,2.37
2019-03-10T05:00:50.624Z,2.40
2019-03-10T05:03:24.329Z,2.00
2019-03-10T05:05:56.243Z,2.30
2019-03-10T05:08:27.685Z,1.97
2019-03-10T05:11:00.244Z,1.80
2019-03-10T05:13:32.264Z,1.87
2019-03-10T05:16:03.975Z,1.43
2019-03-10T05:18:35.901Z,1.90
2019-03-10T05:21:07.415Z,1.80
2019-03-10T05:23:42.002Z,2.10
2019-03-10T05:26:14.769Z,1.77
2019-03-10T05:28:47.282Z,1.20
2019-03-10T05:31:18.687Z,1.23
2019-03-10T05:33:51.530Z,1.47
2019-03-10T05:36:24.267Z,1.60
2019-03-10T05:38:55.690Z,1.40
2019-03-10T05:41:28.450Z,1.60
2019-03-10T05:44:00.301Z,1.60
2019-03-10T05:46:31.618Z,1.90
2019-03-10T05:49:03.284Z,1.90
2019-03-10T05:51:34.731Z,1.90
2019-03-10T05:54:06.774Z,1.60
2019-03-10T05:56:38.079Z,2.17
2019-03-10T05:59:09.907Z,1.93
2019-03-10T06:01:42.171Z,2.40
2019-03-10T06:04:13.951Z,1.90
2019-03-10T06:06:45.253Z,1.87
2019-03-10T06:09:16.685Z,1.70
2019-03-10T06:11:48.144Z,1.57
2019-03-10T06:14:21.333Z,1.60
2019-03-10T06:16:52.895Z,2.03
2019-03-10T06:19:25.078Z,1.80
2019-03-10T06:21:58.652Z,1.80
2019-03-10T06:24:30.548Z,1.83
2019-03-10T06:27:02.053Z,1.50
2019-03-10T06:29:33.947Z,1.67
2019-03-10T06:32:05.394Z,1.50
2019-03-10T06:34:36.762Z,1.30
2019-03-10T06:37:08.241Z,1.40
2019-03-10T06:39:40.001Z,1.13
2019-03-10T06:42:11.527Z,1.47
2019-03-10T06:44:43.020Z,1.13
2019-03-10T06:47:14.429Z,0.87
2019-03-10T06:49:46.134Z,1.27
2019-03-10T06:52:17.529Z,1.37
2019-03-10T06:54:48.906Z,1.40
2019-03-10T06:57:21.494Z,1.20
2019-03-10T06:59:53.034Z,1.10
2019-03-10T07:02:24.969Z,1.00
2019-03-10T07:04:56.301Z,1.40
2019-03-10T07:07:27.838Z,1.33
2019-03-10T07:10:01.089Z,1.57
2019-03-10T07:12:32.869Z,1.50
2019-03-10T07:15:05.160Z,1.20
2019-03-10T07:17:39.192Z,1.30
2019-03-10T07:20:12.912Z,1.40
2019-03-10T07:22:44.315Z,1.87
2019-03-10T07:25:15.809Z,1.60
2019-03-10T07:28:15.020Z,2.20
2019-03-10T07:31:00.710Z,2.80
2019-03-10T07:33:49.923Z,2.53
2019-03-10T07:36:46.721Z,3.60
2019-03-10T07:39:41.820Z,3.43
2019-03-10T07:42:32.315Z,3.87
2019-03-10T07:45:12.059Z,3.13
2019-03-10T07:48:00.952Z,3.97
2019-03-10T07:50:43.648Z,3.07
2019-03-10T07:53:32.807Z,5.53
2019-03-10T07:56:12.641Z,2.20
2019-03-10T07:59:01.555Z,2.53
2019-03-10T08:01:48.737Z,2.03
2019-03-10T08:04:31.235Z,2.80
2019-03-10T08:07:21.303Z,3.13
2019-03-10T08:10:12.102Z,2.23
2019-03-10T08:12:56.284Z,2.87
2019-03-10T08:15:50.257Z,2.53
2019-03-10T08:18:30.941Z,1.83
2019-03-10T08:21:19.946Z,2.67
2019-03-10T08:23:58.035Z,2.50
2019-03-10T08:26:41.648Z,2.00
2019-03-10T08:29:36.532Z,1.70
2019-03-10T08:32:33.126Z,1.90
2019-03-10T08:35:36.129Z,2.20
2019-03-10T08:38:24.635Z,1.80
2019-03-10T08:41:10.464Z,2.13
2019-03-10T08:43:54.115Z,3.10
2019-03-10T08:46:34.355Z,2.07
2019-03-10T08:49:27.723Z,1.80
2019-03-10T08:52:12.483Z,2.07
2019-03-10T08:55:07.294Z,3.13
2019-03-10T08:58:17.012Z,4.63
2019-03-10T09:01:01.427Z,2.17
2019-03-10T09:03:59.341Z,3.03
2019-03-10T09:06:40.860Z,3.57
2019-03-10T09:09:31.444Z,2.97
2019-03-10T09:12:10.498Z,2.70
2019-03-10T09:14:59.132Z,2.67
2019-03-10T09:18:00.674Z,2.90
2019-03-10T09:20:45.456Z,2.70
2019-03-10T09:23:35.813Z,2.70
2019-03-10T09:26:25.039Z,3.33
2019-03-10T09:29:13.951Z,2.93
2019-03-10T09:31:55.966Z,2.83
2019-03-10T09:35:05.518Z,2.57
2019-03-10T09:37:48.100Z,3.40
2019-03-10T09:40:45.957Z,2.80
2019-03-10T09:43:42.007Z,3.33
2019-03-10T09:46:39.337Z,3.57
2019-03-10T09:49:28.652Z,2.80
2019-03-10T09:52:11.995Z,5.73
2019-03-10T09:55:07.001Z,3.70
2019-03-10T09:57:54.423Z,3.67
2019-03-10T10:00:57.015Z,5.17
2019-03-10T10:03:37.353Z,4.60
2019-03-10T10:06:28.367Z,3.20
2019-03-10T10:09:26.433Z,4.57
2019-03-10T10:12:31.900Z,4.33
2019-03-10T10:15:22.907Z,4.50
2019-03-10T10:18:16.226Z,4.53
2019-03-10T10:21:15.664Z,4.87
2019-03-10T10:24:10.017Z,3.40
2019-03-10T10:27:01.299Z,3.87
2019-03-10T10:29:57.591Z,4.40
2019-03-10T10:32:35.505Z,4.23
2019-03-10T10:35:32.559Z,3.70
2019-03-10T10:38:21.591Z,3.00
2019-03-10T10:41:13.675Z,3.23
2019-03-10T10:44:10.119Z,3.37
2019-03-10T10:46:51.534Z,5.00
2019-03-10T10:49:42.234Z,4.47
2019-03-10T10:52:32.133Z,3.67
2019-03-10T10:55:24.450Z,3.30
2019-03-10T10:58:15.846Z,3.87
2019-03-10T11:00:54.563Z,3.60
2019-03-10T11:03:37.527Z,3.60
2019-03-10T11:06:41.386Z,3.90
2019-03-10T11:09:19.556Z,3.40
2019-03-10T11:11:59.054Z,3.50
2019-03-10T11:14:50.391Z,3.73
2019-03-10T11:17:29.219Z,3.67
2019-03-10T11:20:15.937Z,3.20
2019-03-10T11:23:17.936Z,3.53
2019-03-10T11:26:04.804Z,3.20
2019-03-10T11:29:04.641Z,3.20
2019-03-10T11:31:59.394Z,3.67
2019-03-10T11:34:52.291Z,3.53
2019-03-10T11:37:46.854Z,2.43
2019-03-10T11:40:38.819Z,2.90
2019-03-10T11:43:33.542Z,3.20
2019-03-10T11:46:25.910Z,2.63
2019-03-10T11:49:16.119Z,1.97
2019-03-10T11:51:57.921Z,2.53
2019-03-10T11:54:51.245Z,3.43
2019-03-10T11:57:48.438Z,2.73
2019-03-10T12:00:43.819Z,3.17
2019-03-10T12:03:34.879Z,2.60
2019-03-10T12:06:20.966Z,3.27
2019-03-10T12:09:10.070Z,3.10
2019-03-10T12:11:43.165Z,3.27
2019-03-10T12:14:16.010Z,2.67
2019-03-10T12:16:48.217Z,3.03
2019-03-10T12:19:20.030Z,2.93
2019-03-10T12:21:52.829Z,2.50
2019-03-10T12:24:24.345Z,2.47
2019-03-10T12:26:56.790Z,2.83
2019-03-10T12:29:29.821Z,2.17
2019-03-10T12:32:02.981Z,2.60
2019-03-10T12:34:36.002Z,2.50
2019-03-10T12:37:13.165Z,2.47
2019-03-10T12:39:46.377Z,2.70
2019-03-10T12:42:18.387Z,2.63
2019-03-10T12:44:49.921Z,3.50
2019-03-10T12:47:22.994Z,3.87
2019-03-10T12:49:54.883Z,4.23
2019-03-10T12:52:27.859Z,3.70
2019-03-10T12:55:00.965Z,4.03
2019-03-10T12:57:33.545Z,4.97
2019-03-10T13:00:07.314Z,3.47
2019-03-10T13:02:40.417Z,4.30
2019-03-10T13:05:13.343Z,4.07
2019-03-10T13:07:46.533Z,2.47
2019-03-10T13:10:19.778Z,2.90
2019-03-10T13:12:52.887Z,3.17
2019-03-10T13:15:24.322Z,3.87
2019-03-10T13:17:57.991Z,3.10
2019-03-10T13:20:30.929Z,3.10
2019-03-10T13:23:02.897Z,3.67
2019-03-10T13:25:35.027Z,3.37
2019-03-10T13:28:06.386Z,3.97
2019-03-10T13:30:39.906Z,2.90
2019-03-10T13:33:11.558Z,3.87
2019-03-10T13:35:44.561Z,4.10
2019-03-10T13:38:17.544Z,2.00
2019-03-10T13:40:50.549Z,2.87
2019-03-10T13:43:23.829Z,3.00
2019-03-10T13:45:56.914Z,3.27
2019-03-10T13:48:28.746Z,3.50
2019-03-10T13:51:01.799Z,3.83
2019-03-10T13:53:35.670Z,2.93
2019-03-10T13:56:08.952Z,3.03
2019-03-10T13:58:41.008Z,3.13
2019-03-10T14:01:12.582Z,2.87
2019-03-10T14:03:45.606Z,3.43
2019-03-10T14:06:17.458Z,2.80
2019-03-10T14:08:50.100Z,2.57
2019-03-10T14:11:22.428Z,4.03
2019-03-10T14:13:54.628Z,3.60
2019-03-10T14:16:27.284Z,4.87
2019-03-10T14:18:59.962Z,3.13
2019-03-10T14:21:33.775Z,4.30
2019-03-10T14:24:06.849Z,4.80
2019-03-10T14:26:39.501Z,3.73
2019-03-10T14:29:11.522Z,3.43
2019-03-10T14:31:44.446Z,4.03
2019-03-10T14:34:17.479Z,2.93
2019-03-10T14:36:49.999Z,3.20
2019-03-10T14:39:22.604Z,3.30
2019-03-10T14:41:54.201Z,3.70
2019-03-10T14:44:27.339Z,3.87
2019-03-10T14:46:59.955Z,4.63
2019-03-10T14:49:32.953Z,2.93
2019-03-10T14:52:05.707Z,3.83
2019-03-10T14:54:38.801Z,5.33
2019-03-10T14:57:11.522Z,4.47
2019-03-10T14:59:44.612Z,4.23
2019-03-10T15:02:17.625Z,4.07
2019-03-10T15:04:50.706Z,4.03
2019-03-10T15:07:23.771Z,3.83
2019-03-10T15:09:56.791Z,3.90
2019-03-10T15:12:29.127Z,3.77
2019-03-10T15:15:00.514Z,3.67
2019-03-10T15:17:32.076Z,4.20
2019-03-10T15:20:05.560Z,4.17
2019-03-10T15:22:38.702Z,4.10
2019-03-10T15:25:10.891Z,2.97
2019-03-10T15:27:44.989Z,3.20
2019-03-10T15:30:18.349Z,2.97
2019-03-10T15:32:50.030Z,3.03
2019-03-10T15:35:22.146Z,4.00
2019-03-10T15:37:55.181Z,2.90
2019-03-10T15:40:27.984Z,2.90
2019-03-10T15:42:59.875Z,3.37
2019-03-10T15:45:33.190Z,3.03
2019-03-10T15:48:06.201Z,3.10
2019-03-10T15:50:39.421Z,3.50
2019-03-10T15:53:12.289Z,5.10
2019-03-10T15:55:43.747Z,5.23
2019-03-10T15:58:15.729Z,4.77
2019-03-10T16:00:48.217Z,4.43
2019-03-10T16:03:20.568Z,4.63
2019-03-10T16:05:53.592Z,4.60
2019-03-10T16:08:24.900Z,4.70
2019-03-10T16:10:58.016Z,4.83
2019-03-10T16:13:30.930Z,5.73
2019-03-10T16:16:04.020Z,6.10
2019-03-10T16:18:37.136Z,5.10
2019-03-10T16:21:10.208Z,6.10
2019-03-10T16:23:44.225Z,5.47
2019-03-10T16:26:16.698Z,6.97
2019-03-10T16:28:49.690Z,10.30
2019-03-10T16:31:22.834Z,8.50
2019-03-10T16:33:54.912Z,5.73
2019-03-10T16:36:27.918Z,6.27
2019-03-10T16:39:01.899Z,6.43
2019-03-10T16:41:36.579Z,7.30
2019-03-10T16:44:08.613Z,7.30
2019-03-10T16:46:41.915Z,7.03
2019-03-10T16:49:13.448Z,10.73
2019-03-10T16:51:46.508Z,18.07
2019-03-10T16:54:19.438Z,15.40
2019-03-10T16:56:51.065Z,10.30
2019-03-10T16:59:23.104Z,9.40
2019-03-10T17:01:56.149Z,10.17
2019-03-10T17:04:27.877Z,9.83
2019-03-10T17:06:59.823Z,12.10
2019-03-10T17:09:33.172Z,10.30
2019-03-10T17:12:06.214Z,9.93
2019-03-10T17:14:37.729Z,8.93
2019-03-10T17:17:09.827Z,10.13
2019-03-10T17:19:43.074Z,9.40
2019-03-10T17:22:16.179Z,11.10
2019-03-10T17:24:48.999Z,11.43
2019-03-10T17:27:22.377Z,17.57
2019-03-10T17:29:54.648Z,20.47
2019-03-10T17:32:27.709Z,20.97
2019-03-10T17:34:59.164Z,15.50
2019-03-10T17:37:32.127Z,10.40
2019-03-10T17:40:03.788Z,12.13
2019-03-10T17:42:36.919Z,12.73
2019-03-10T17:45:10.997Z,12.87
2019-03-10T17:47:42.625Z,14.83
2019-03-10T17:50:15.482Z,25.97
2019-03-10T17:52:49.238Z,36.80
2019-03-10T17:55:20.965Z,35.67
2019-03-10T17:57:54.024Z,35.93
2019-03-10T18:00:28.196Z,31.63
2019-03-10T18:03:01.381Z,31.17
2019-03-10T18:05:34.003Z,28.77
2019-03-10T18:08:07.096Z,28.00
2019-03-10T18:10:38.523Z,25.40
2019-03-10T18:13:11.620Z,26.23
2019-03-10T18:15:43.279Z,25.37
2019-03-10T18:18:15.859Z,32.63
2019-03-10T18:20:48.998Z,37.37
2019-03-10T18:23:21.493Z,37.30
2019-03-10T18:25:53.068Z,41.53
2019-03-10T18:28:26.201Z,44.63
2019-03-10T18:30:59.343Z,50.53
2019-03-10T18:33:31.650Z,80.40
2019-03-10T18:36:05.306Z,76.00
2019-03-10T18:38:38.374Z,56.97
2019-03-10T18:41:10.250Z,52.53
2019-03-10T18:43:43.791Z,54.80
2019-03-10T18:46:16.834Z,44.70
2019-03-10T18:48:49.864Z,46.67
2019-03-10T18:51:21.399Z,44.80
2019-03-10T18:53:54.526Z,47.57
2019-03-10T18:56:27.521Z,47.53
2019-03-10T18:59:00.667Z,52.17
2019-03-10T19:01:32.506Z,47.93
2019-03-10T19:04:05.346Z,48.63
2019-03-10T19:06:38.420Z,46.00
2019-03-10T19:09:11.531Z,53.70
2019-03-10T19:11:44.578Z,55.80
2019-03-10T19:14:17.683Z,53.00
2019-03-10T19:16:49.873Z,52.77
2019-03-10T19:19:23.786Z,49.70
2019-03-10T19:21:56.114Z,50.20
2019-03-10T19:24:29.140Z,42.87
2019-03-10T19:27:02.442Z,39.80
2019-03-10T19:29:35.647Z,39.20
2019-03-10T19:32:10.376Z,38.60
2019-03-10T19:34:43.701Z,38.33
2019-03-10T19:37:15.358Z,35.37
2019-03-10T19:39:48.645Z,39.00
2019-03-10T19:42:22.747Z,40.60
2019-03-10T19:44:55.268Z,32.47
2019-03-10T19:47:27.656Z,33.50
2019-03-10T19:50:01.172Z,37.37
2019-03-10T19:52:34.591Z,37.20
2019-03-10T19:55:07.741Z,36.70
2019-03-10T19:57:41.405Z,32.23
2019-03-10T20:00:15.734Z,31.23
2019-03-10T20:02:49.010Z,32.60
2019-03-10T20:05:21.495Z,36.47
2019-03-10T20:07:52.898Z,31.30
2019-03-10T20:10:25.464Z,37.27
2019-03-10T20:12:58.701Z,28.57
2019-03-10T20:15:31.742Z,28.53
2019-03-10T20:18:04.815Z,27.87
2019-03-10T20:20:36.708Z,28.73
2019-03-10T20:23:08.266Z,28.03
2019-03-10T20:25:41.555Z,25.50
2019-03-10T20:28:13.010Z,24.50
2019-03-10T20:30:45.399Z,23.50
2019-03-10T20:33:17.225Z,21.13
2019-03-10T20:35:51.175Z,20.73
2019-03-10T20:38:23.596Z,22.63
2019-03-10T20:40:55.933Z,25.07
2019-03-10T20:43:29.680Z,22.90
2019-03-10T20:46:01.972Z,19.27
2019-03-10T20:48:36.077Z,18.23
2019-03-10T20:51:08.411Z,15.50
2019-03-10T20:53:41.914Z,16.13
2019-03-10T20:56:13.683Z,14.10
2019-03-10T20:58:47.719Z,13.53
2019-03-10T21:01:21.249Z,12.53
2019-03-10T21:03:54.260Z,10.97
2019-03-10T21:06:27.424Z,11.50
2019-03-10T21:08:58.974Z,10.67
2019-03-10T21:11:32.053Z,11.03
2019-03-10T21:14:04.982Z,10.27
2019-03-10T21:16:38.131Z,11.13
2019-03-10T21:19:11.983Z,11.87
2019-03-10T21:21:45.385Z,12.47
2019-03-10T21:24:17.032Z,13.20
2019-03-10T21:26:50.036Z,12.93
2019-03-10T21:29:23.144Z,11.87
2019-03-10T21:31:56.200Z,11.90
2019-03-10T21:34:29.250Z,11.70
2019-03-10T21:37:02.307Z,11.87
2019-03-10T21:39:34.886Z,11.30
2019-03-10T21:42:08.148Z,10.90
2019-03-10T21:44:41.184Z,8.70
2019-03-10T21:47:14.229Z,8.13
2019-03-10T21:49:47.298Z,7.87
2019-03-10T21:52:19.245Z,8.70
2019-03-10T21:54:51.100Z,8.63
2019-03-10T21:57:24.266Z,8.90
2019-03-10T21:59:58.025Z,8.87
2019-03-10T22:02:30.377Z,8.37
2019-03-10T22:05:03.356Z,9.80
2019-03-10T22:07:35.879Z,10.57
2019-03-10T22:10:09.760Z,12.17
2019-03-10T22:12:42.781Z,9.30
2019-03-10T22:15:15.783Z,11.83
2019-03-10T22:17:48.884Z,10.60
2019-03-10T22:20:21.634Z,8.73
2019-03-10T22:22:53.289Z,8.97
2019-03-10T22:25:24.730Z,9.67
2019-03-10T22:27:57.724Z,7.43
2019-03-10T22:30:29.412Z,8.30
2019-03-10T22:33:02.465Z,7.70
2019-03-10T22:35:35.450Z,7.63
2019-03-10T22:38:06.815Z,6.90
2019-03-10T22:40:39.779Z,6.63
2019-03-10T22:43:12.777Z,5.87
2019-03-10T22:45:45.762Z,6.37
2019-03-10T22:48:18.757Z,5.57
2019-03-10T22:50:51.784Z,6.17
2019-03-10T22:53:24.376Z,6.00
2019-03-10T22:55:57.392Z,5.27
2019-03-10T22:58:30.978Z,5.30
2019-03-10T23:01:03.092Z,5.07
2019-03-10T23:03:37.388Z,5.13
2019-03-10T23:06:10.403Z,4.90
2019-03-10T23:08:43.347Z,4.13
2019-03-10T23:11:16.349Z,4.07
2019-03-10T23:13:50.301Z,4.03
2019-03-10T23:16:23.595Z,4.00
2019-03-10T23:18:56.675Z,3.90
2019-03-10T23:21:30.411Z,3.47
2019-03-10T23:24:01.966Z,4.43
2019-03-10T23:26:34.931Z,3.30
2019-03-10T23:29:07.958Z,4.27
2019-03-10T23:31:39.986Z,4.43
2019-03-10T23:34:12.949Z,4.60
2019-03-10T23:36:45.961Z,5.60
2019-03-10T23:39:18.964Z,5.73
2019-03-10T23:41:52.035Z,4.03
2019-03-10T23:44:24.997Z,3.30
2019-03-10T23:46:57.983Z,3.50
2019-03-10T23:49:30.937Z,3.70
2019-03-10T23:52:04.019Z,3.30
2019-03-10T23:54:37.360Z,3.03
2019-03-10T23:57:09.084Z,3.53
2019-03-10T23:59:40.240Z,3.80
